Alexander 3 — SW6137 — position and weather

sailwx.info

Track history (hours):
 
Tides and Currents Weather Stations Pressure Air Temp Water Temp Dewpoint Dewpoint Depression Visibility Wind Speed Wind Dir Waves Ship Positions

Alexander 3

Last reported at 2016-May-06 01:34 UTC. Time now 2016-May-06 20:40 UTC.
Position N 37°57' E 023°35'.

Length 38 m; draft 5.6 m.

Type: Tug. MMSI: 240733000.

Date/timePositionNaut miles runAvg speedWind from/ knotsBaromVisibWave heightAir tempDewpointWater temp
2016-May-06 01:34N 37°57' E 023°35'2 1.9
2016-May-06 00:33N 37°56' E 023°37'0 0.0
2016-May-05 23:33N 37°56' E 023°37'0 0.0
2016-May-05 22:33N 37°56' E 023°37'0 0.0
2016-May-05 21:33N 37°56' E 023°37'0 0.0
2016-May-05 16:33N 37°56' E 023°37'0 0.0
2016-May-05 15:33N 37°56' E 023°37'3 3.2
2016-May-05 14:33N 37°57' E 023°34'2 1.9
2016-May-05 13:33N 37°57' E 023°36'1 0.7
2016-May-05 12:33N 37°57' E 023°35'1 1.2
2016-May-05 11:33N 37°56' E 023°35'3 3.0
2016-May-05 10:33N 37°57' E 023°38'0 0.0
2016-May-05 09:33N 37°57' E 023°38'0 0.0
2016-May-05 08:33N 37°57' E 023°38'2 1.6
2016-May-05 07:33N 37°56' E 023°37'1010.0
2016-May-05 06:33N 37°53' E 023°25'6 5.7
2016-May-05 05:33N 37°58' E 023°23'0 0.1
2016-May-05 04:33N 37°58' E 023°23'1 1.0
2016-May-05 03:33N 37°58' E 023°24'0 0.0
2016-May-05 02:33N 37°58' E 023°24'0 0.0
2016-May-05 01:33N 37°58' E 023°24'0 0.0
2016-May-05 00:33N 37°58' E 023°24'0 0.0
2016-May-04 23:34N 37°58' E 023°24'0 0.0
2016-May-04 22:33N 37°58' E 023°24'0 0.0
2016-May-04 21:33N 37°58' E 023°24'0 0.0
2016-May-04 20:33N 37°58' E 023°24'0 0.0
2016-May-04 19:33N 37°58' E 023°24'0 0.0
2016-May-04 18:33N 37°58' E 023°24'0 0.0
2016-May-04 17:33N 37°58' E 023°24'0 0.0
2016-May-04 16:33N 37°58' E 023°24'0 0.0
2016-May-04 15:33N 37°58' E 023°24'0 0.0
2016-May-04 14:33N 37°58' E 023°24'0 0.0
2016-May-04 13:33N 37°58' E 023°24'0 0.0
2016-May-04 12:33N 37°58' E 023°24'0 0.0
2016-May-04 11:33N 37°58' E 023°24'0 0.0
2016-May-04 10:33N 37°58' E 023°24'0 0.0
2016-May-04 09:33N 37°58' E 023°24'0 0.0
2016-May-04 08:33N 37°58' E 023°24'0 0.0
2016-May-04 07:33N 37°58' E 023°24'0 0.0
2016-May-04 06:33N 37°58' E 023°24'0 0.0
2016-May-04 05:33N 37°58' E 023°24'0 0.0
2016-May-04 04:33N 37°58' E 023°24'0 0.0
2016-May-04 03:33N 37°58' E 023°24'0 0.0
2016-May-04 02:33N 37°58' E 023°24'0 0.0
2016-May-04 01:33N 37°58' E 023°24'0 0.0
2016-May-04 00:33N 37°58' E 023°24'0 0.0
2016-May-03 23:33N 37°58' E 023°24'0 0.0
2016-May-03 22:33N 37°58' E 023°24'0 0.0
2016-May-03 21:33N 37°58' E 023°24'0 0.0
2016-May-03 20:33N 37°58' E 023°24'0 0.0
2016-May-03 19:33N 37°58' E 023°24'0 0.0
2016-May-03 18:33N 37°58' E 023°24'0 0.0
2016-May-03 17:33N 37°58' E 023°24'0 0.0
2016-May-03 16:33N 37°58' E 023°24'0 0.0
2016-May-03 15:33N 37°58' E 023°24'0 0.0
2016-May-03 14:33N 37°58' E 023°24'0 0.0
2016-May-03 13:33N 37°58' E 023°24'0 0.0
2016-May-03 12:34N 37°58' E 023°24'0 0.0
2016-May-03 11:33N 37°58' E 023°24'0 0.0
2016-May-03 10:34N 37°58' E 023°24'0 0.0
2016-May-03 09:33N 37°58' E 023°24'0 0.0
2016-May-03 08:33N 37°58' E 023°24'1 1.2
2016-May-03 07:33N 37°58' E 023°23'0 0.3
2016-May-03 06:33N 37°58' E 023°23'2 1.5
2016-May-03 05:33N 37°58' E 023°25'6 6.2
2016-May-03 04:33N 37°58' E 023°33'4 3.9
2016-May-03 03:33N 37°56' E 023°37'0 0.0
2016-May-02 10:31N 37°56' E 023°37'1 1.5
2016-May-02 09:33N 37°57' E 023°37'0 0.0
2016-May-02 08:33N 37°57' E 023°37'0 0.0
2016-May-02 07:33N 37°57' E 023°37'1 0.5
2016-May-02 06:33N 37°57' E 023°36'1 1.4
2016-May-02 05:34N 37°56' E 023°35'1 0.9
2016-May-02 04:33N 37°57' E 023°35'2 1.9
2016-May-02 03:33N 37°56' E 023°37'  
2016-Apr-29 14:12N 37°56' E 023°37'3 3.9
2016-Apr-29 13:33N 37°57' E 023°35'5 4.7
2016-Apr-29 12:33N 38°01' E 023°30'0 0.4
2016-Apr-29 11:33N 38°00' E 023°31'3 2.9
2016-Apr-29 10:33N 37°58' E 023°33'3 3.1
2016-Apr-29 09:33N 37°56' E 023°36'1 0.9
2016-Apr-29 08:33N 37°55' E 023°36'2 1.6
2016-Apr-29 07:33N 37°56' E 023°37'0 0.0
2016-Apr-29 06:33N 37°56' E 023°37'0 0.0
2016-Apr-29 05:33N 37°56' E 023°37'0 0.0
2016-Apr-29 04:33N 37°56' E 023°37'0 0.0
2016-Apr-29 03:34N 37°56' E 023°37'0 0.0
2016-Apr-28 17:24N 37°56' E 023°37'2 2.3
2016-Apr-28 16:33N 37°57' E 023°35'2 1.9
2016-Apr-28 15:33N 37°56' E 023°37'0 0.0
2016-Apr-28 14:34N 37°56' E 023°37'0 0.0
2016-Apr-28 13:33N 37°56' E 023°37'0 0.0
2016-Apr-28 12:33N 37°56' E 023°37'0 0.0
2016-Apr-28 11:33N 37°56' E 023°37'0 0.0
2016-Apr-28 10:33N 37°56' E 023°37'0 0.0
2016-Apr-28 09:33N 37°56' E 023°37'0 0.0
2016-Apr-28 08:34N 37°56' E 023°37'0 0.0
2016-Apr-28 07:33N 37°56' E 023°37'0 0.0
2016-Apr-28 06:33N 37°56' E 023°37'0 0.1
2016-Apr-28 05:33N 37°56' E 023°37'2 2.0
2016-Apr-28 04:34N 37°57' E 023°35'2 1.6
2016-Apr-28 03:33N 37°57' E 023°37'0 0.0
2016-Apr-27 19:10N 37°57' E 023°37'0 0.0
2016-Apr-27 18:33N 37°57' E 023°37'0 0.0
2016-Apr-27 17:33N 37°57' E 023°37'0 0.0
2016-Apr-27 16:33N 37°57' E 023°37'0 0.0
2016-Apr-27 15:33N 37°57' E 023°37'0 0.0
2016-Apr-27 14:33N 37°57' E 023°37'0 0.0
2016-Apr-27 13:33N 37°57' E 023°37'0 0.0
2016-Apr-27 12:33N 37°57' E 023°37'1 1.4
2016-Apr-27 11:33N 37°57' E 023°38'0 0.0
2016-Apr-27 10:33N 37°57' E 023°38'0 0.0
2016-Apr-27 09:33N 37°57' E 023°38'0 0.0
2016-Apr-27 08:33N 37°57' E 023°38'0 0.0
2016-Apr-27 07:33N 37°57' E 023°38'0 0.0
2016-Apr-27 06:33N 37°57' E 023°38'0 0.0
2016-Apr-27 05:33N 37°57' E 023°38'0 0.0
2016-Apr-27 04:33N 37°57' E 023°38'0 0.0
2016-Apr-27 03:33N 37°57' E 023°38'0 0.0
2016-Apr-27 02:33N 37°57' E 023°38'0 0.0
2016-Apr-27 01:33N 37°57' E 023°38'0 0.0
2016-Apr-27 00:33N 37°57' E 023°38'0 0.0
2016-Apr-26 23:33N 37°57' E 023°38'0 0.0
2016-Apr-26 22:33N 37°57' E 023°38'0 0.0
2016-Apr-26 21:33N 37°57' E 023°38'0 0.0
2016-Apr-26 20:33N 37°57' E 023°38'0 0.0
2016-Apr-26 19:34N 37°57' E 023°38'0 0.0
2016-Apr-26 18:33N 37°57' E 023°38'0 0.0
2016-Apr-26 17:33N 37°57' E 023°38'0 0.0
2016-Apr-26 16:33N 37°57' E 023°38'1 0.6
2016-Apr-26 15:33N 37°56' E 023°38'0 0.0
2016-Apr-26 14:33N 37°56' E 023°38'1 0.6
2016-Apr-26 13:32N 37°57' E 023°38'0 0.0
2016-Apr-26 12:34N 37°57' E 023°38'0 0.0
2016-Apr-26 11:33N 37°57' E 023°38'0 0.0
2016-Apr-26 10:33N 37°57' E 023°38'2 1.8
2016-Apr-26 09:33N 37°58' E 023°36'0 0.0
2016-Apr-26 08:33N 37°58' E 023°36'0 0.0
2016-Apr-26 07:33N 37°58' E 023°36'0 0.2
2016-Apr-26 06:32N 37°57' E 023°37'0 0.0
2016-Apr-26 05:33N 37°57' E 023°37'0 0.1
2016-Apr-26 04:33N 37°58' E 023°37'0 0.1
2016-Apr-26 03:33N 37°57' E 023°37'0 0.0
2016-Apr-26 02:33N 37°57' E 023°37'  
Track history (hours):
 
Tides and Currents Weather Stations Pressure Air Temp Water Temp Dewpoint Dewpoint Depression Visibility Wind Speed Wind Dir Waves Ship Positions

Alexander 3

Last reported at 2016-May-06 01:34 UTC. Time now 2016-May-06 20:40 UTC.
Position N 37°57' E 023°35'.

Length 38 m; draft 5.6 m.

Type: Tug. MMSI: 240733000.

Date/timePositionNaut miles runAvg speedWind from/ knotsBaromVisibWave heightAir tempDewpointWater temp
2016-May-06 01:34N 37°57' E 023°35'2 1.9
2016-May-06 00:33N 37°56' E 023°37'0 0.0
2016-May-05 23:33N 37°56' E 023°37'0 0.0
2016-May-05 22:33N 37°56' E 023°37'0 0.0
2016-May-05 21:33N 37°56' E 023°37'0 0.0
2016-May-05 16:33N 37°56' E 023°37'0 0.0
2016-May-05 15:33N 37°56' E 023°37'3 3.2
2016-May-05 14:33N 37°57' E 023°34'2 1.9
2016-May-05 13:33N 37°57' E 023°36'1 0.7
2016-May-05 12:33N 37°57' E 023°35'1 1.2
2016-May-05 11:33N 37°56' E 023°35'3 3.0
2016-May-05 10:33N 37°57' E 023°38'0 0.0
2016-May-05 09:33N 37°57' E 023°38'0 0.0
2016-May-05 08:33N 37°57' E 023°38'2 1.6
2016-May-05 07:33N 37°56' E 023°37'1010.0
2016-May-05 06:33N 37°53' E 023°25'6 5.7
2016-May-05 05:33N 37°58' E 023°23'0 0.1
2016-May-05 04:33N 37°58' E 023°23'1 1.0
2016-May-05 03:33N 37°58' E 023°24'0 0.0
2016-May-05 02:33N 37°58' E 023°24'0 0.0
2016-May-05 01:33N 37°58' E 023°24'0 0.0
2016-May-05 00:33N 37°58' E 023°24'0 0.0
2016-May-04 23:34N 37°58' E 023°24'0 0.0
2016-May-04 22:33N 37°58' E 023°24'0 0.0
2016-May-04 21:33N 37°58' E 023°24'0 0.0
2016-May-04 20:33N 37°58' E 023°24'0 0.0
2016-May-04 19:33N 37°58' E 023°24'0 0.0
2016-May-04 18:33N 37°58' E 023°24'0 0.0
2016-May-04 17:33N 37°58' E 023°24'0 0.0
2016-May-04 16:33N 37°58' E 023°24'0 0.0
2016-May-04 15:33N 37°58' E 023°24'0 0.0
2016-May-04 14:33N 37°58' E 023°24'0 0.0
2016-May-04 13:33N 37°58' E 023°24'0 0.0
2016-May-04 12:33N 37°58' E 023°24'0 0.0
2016-May-04 11:33N 37°58' E 023°24'0 0.0
2016-May-04 10:33N 37°58' E 023°24'0 0.0
2016-May-04 09:33N 37°58' E 023°24'0 0.0
2016-May-04 08:33N 37°58' E 023°24'0 0.0
2016-May-04 07:33N 37°58' E 023°24'0 0.0
2016-May-04 06:33N 37°58' E 023°24'0 0.0
2016-May-04 05:33N 37°58' E 023°24'0 0.0
2016-May-04 04:33N 37°58' E 023°24'0 0.0
2016-May-04 03:33N 37°58' E 023°24'0 0.0
2016-May-04 02:33N 37°58' E 023°24'0 0.0
2016-May-04 01:33N 37°58' E 023°24'0 0.0
2016-May-04 00:33N 37°58' E 023°24'0 0.0
2016-May-03 23:33N 37°58' E 023°24'0 0.0
2016-May-03 22:33N 37°58' E 023°24'0 0.0
2016-May-03 21:33N 37°58' E 023°24'0 0.0
2016-May-03 20:33N 37°58' E 023°24'0 0.0
2016-May-03 19:33N 37°58' E 023°24'0 0.0
2016-May-03 18:33N 37°58' E 023°24'0 0.0
2016-May-03 17:33N 37°58' E 023°24'0 0.0
2016-May-03 16:33N 37°58' E 023°24'0 0.0
2016-May-03 15:33N 37°58' E 023°24'0 0.0
2016-May-03 14:33N 37°58' E 023°24'0 0.0
2016-May-03 13:33N 37°58' E 023°24'0 0.0
2016-May-03 12:34N 37°58' E 023°24'0 0.0
2016-May-03 11:33N 37°58' E 023°24'0 0.0
2016-May-03 10:34N 37°58' E 023°24'0 0.0
2016-May-03 09:33N 37°58' E 023°24'0 0.0
2016-May-03 08:33N 37°58' E 023°24'1 1.2
2016-May-03 07:33N 37°58' E 023°23'0 0.3
2016-May-03 06:33N 37°58' E 023°23'2 1.5
2016-May-03 05:33N 37°58' E 023°25'6 6.2
2016-May-03 04:33N 37°58' E 023°33'4 3.9
2016-May-03 03:33N 37°56' E 023°37'0 0.0
2016-May-02 10:31N 37°56' E 023°37'1 1.5
2016-May-02 09:33N 37°57' E 023°37'0 0.0
2016-May-02 08:33N 37°57' E 023°37'0 0.0
2016-May-02 07:33N 37°57' E 023°37'1 0.5
2016-May-02 06:33N 37°57' E 023°36'1 1.4
2016-May-02 05:34N 37°56' E 023°35'1 0.9
2016-May-02 04:33N 37°57' E 023°35'2 1.9
2016-May-02 03:33N 37°56' E 023°37'  
2016-Apr-29 14:12N 37°56' E 023°37'3 3.9
2016-Apr-29 13:33N 37°57' E 023°35'5 4.7
2016-Apr-29 12:33N 38°01' E 023°30'0 0.4
2016-Apr-29 11:33N 38°00' E 023°31'3 2.9
2016-Apr-29 10:33N 37°58' E 023°33'3 3.1
2016-Apr-29 09:33N 37°56' E 023°36'1 0.9
2016-Apr-29 08:33N 37°55' E 023°36'2 1.6
2016-Apr-29 07:33N 37°56' E 023°37'0 0.0
2016-Apr-29 06:33N 37°56' E 023°37'0 0.0
2016-Apr-29 05:33N 37°56' E 023°37'0 0.0
2016-Apr-29 04:33N 37°56' E 023°37'0 0.0
2016-Apr-29 03:34N 37°56' E 023°37'0 0.0
2016-Apr-28 17:24N 37°56' E 023°37'2 2.3
2016-Apr-28 16:33N 37°57' E 023°35'2 1.9
2016-Apr-28 15:33N 37°56' E 023°37'0 0.0
2016-Apr-28 14:34N 37°56' E 023°37'0 0.0
2016-Apr-28 13:33N 37°56' E 023°37'0 0.0
2016-Apr-28 12:33N 37°56' E 023°37'0 0.0
2016-Apr-28 11:33N 37°56' E 023°37'0 0.0
2016-Apr-28 10:33N 37°56' E 023°37'0 0.0
2016-Apr-28 09:33N 37°56' E 023°37'0 0.0
2016-Apr-28 08:34N 37°56' E 023°37'0 0.0
2016-Apr-28 07:33N 37°56' E 023°37'0 0.0
2016-Apr-28 06:33N 37°56' E 023°37'0 0.1
2016-Apr-28 05:33N 37°56' E 023°37'2 2.0
2016-Apr-28 04:34N 37°57' E 023°35'2 1.6
2016-Apr-28 03:33N 37°57' E 023°37'0 0.0
2016-Apr-27 19:10N 37°57' E 023°37'0 0.0
2016-Apr-27 18:33N 37°57' E 023°37'0 0.0
2016-Apr-27 17:33N 37°57' E 023°37'0 0.0
2016-Apr-27 16:33N 37°57' E 023°37'0 0.0
2016-Apr-27 15:33N 37°57' E 023°37'0 0.0
2016-Apr-27 14:33N 37°57' E 023°37'0 0.0
2016-Apr-27 13:33N 37°57' E 023°37'0 0.0
2016-Apr-27 12:33N 37°57' E 023°37'1 1.4
2016-Apr-27 11:33N 37°57' E 023°38'0 0.0
2016-Apr-27 10:33N 37°57' E 023°38'0 0.0
2016-Apr-27 09:33N 37°57' E 023°38'0 0.0
2016-Apr-27 08:33N 37°57' E 023°38'0 0.0
2016-Apr-27 07:33N 37°57' E 023°38'0 0.0
2016-Apr-27 06:33N 37°57' E 023°38'0 0.0
2016-Apr-27 05:33N 37°57' E 023°38'0 0.0
2016-Apr-27 04:33N 37°57' E 023°38'0 0.0
2016-Apr-27 03:33N 37°57' E 023°38'0 0.0
2016-Apr-27 02:33N 37°57' E 023°38'0 0.0
2016-Apr-27 01:33N 37°57' E 023°38'0 0.0
2016-Apr-27 00:33N 37°57' E 023°38'0 0.0
2016-Apr-26 23:33N 37°57' E 023°38'0 0.0
2016-Apr-26 22:33N 37°57' E 023°38'0 0.0
2016-Apr-26 21:33N 37°57' E 023°38'0 0.0
2016-Apr-26 20:33N 37°57' E 023°38'0 0.0
2016-Apr-26 19:34N 37°57' E 023°38'0 0.0
2016-Apr-26 18:33N 37°57' E 023°38'0 0.0
2016-Apr-26 17:33N 37°57' E 023°38'0 0.0
2016-Apr-26 16:33N 37°57' E 023°38'1 0.6
2016-Apr-26 15:33N 37°56' E 023°38'0 0.0
2016-Apr-26 14:33N 37°56' E 023°38'1 0.6
2016-Apr-26 13:32N 37°57' E 023°38'0 0.0
2016-Apr-26 12:34N 37°57' E 023°38'0 0.0
2016-Apr-26 11:33N 37°57' E 023°38'0 0.0
2016-Apr-26 10:33N 37°57' E 023°38'2 1.8
2016-Apr-26 09:33N 37°58' E 023°36'0 0.0
2016-Apr-26 08:33N 37°58' E 023°36'0 0.0
2016-Apr-26 07:33N 37°58' E 023°36'0 0.2
2016-Apr-26 06:32N 37°57' E 023°37'0 0.0
2016-Apr-26 05:33N 37°57' E 023°37'0 0.1
2016-Apr-26 04:33N 37°58' E 023°37'0 0.1
2016-Apr-26 03:33N 37°57' E 023°37'0 0.0
2016-Apr-26 02:33N 37°57' E 023°37'  

Dump ship's entire track history